EBCI/CRL METAR and TAF weather

Enter ICAO airport designator
Station Type Date Time Source
EBCI METAR 2018/07/21 22:20 UTC NOAA

EBCI 212220Z 35004KT 320V020 CAVOK 18/09 Q1015 NOSIG


Station Type Date Time Source
EBCI Decoded METAR 2018/07/21 22:20 UTC NOAA

Charleroi / Gosselies, Belgium (EBCI) 50-28N 004-27E 192M
Jul 21, 2018 - 06:20 PM EDT / 2018.07.21 2220 UTC
Wind: from the N (350 degrees) at 5 MPH (4 KT) (direction variable):0
Visibility: greater than 7 mile(s):0
Temperature: 64 F (18 C)
Dew Point: 48 F (9 C)
Relative Humidity: 55%
Pressure (altimeter): 29.97 in. Hg (1015 hPa)
ob: EBCI 212220Z 35004KT 320V020 CAVOK 18/09 Q1015 NOSIG
cycle: 22

Station Type Date Time Source
EBCI TAF 2018/07/21 18:27 UTC NOAA

TAF EBCI 211730Z 2118/2224 31005KT CAVOK


Example: see airport list